createdAt,value
2018-06-21T00:01:33.905Z,84.86
2018-06-21T00:04:02.280Z,84.56
2018-06-21T00:06:30.062Z,84.72
2018-06-21T00:08:57.522Z,83.98
2018-06-21T00:11:24.932Z,84.12
2018-06-21T00:13:52.447Z,84.20
2018-06-21T00:16:20.329Z,85.29
2018-06-21T00:18:48.447Z,84.83
2018-06-21T00:21:17.437Z,85.43
2018-06-21T00:23:45.756Z,85.12
2018-06-21T00:26:13.186Z,84.96
2018-06-21T00:28:40.573Z,85.52
2018-06-21T00:31:07.839Z,85.76
2018-06-21T00:33:34.966Z,85.51
2018-06-21T00:36:02.425Z,85.79
2018-06-21T00:38:30.008Z,86.44
2018-06-21T00:40:57.540Z,86.28
2018-06-21T00:43:25.056Z,86.22
2018-06-21T00:45:52.763Z,86.15
2018-06-21T00:48:20.452Z,86.35
2018-06-21T00:50:48.378Z,87.15
2018-06-21T00:53:16.095Z,87.32
2018-06-21T00:55:54.954Z,87.26
2018-06-21T00:58:22.477Z,86.79
2018-06-21T01:00:50.079Z,87.11
2018-06-21T01:03:17.815Z,87.19
2018-06-21T01:05:45.401Z,86.62
2018-06-21T01:08:12.583Z,87.15
2018-06-21T01:10:40.328Z,86.78
2018-06-21T01:13:07.473Z,87.44
2018-06-21T01:15:34.742Z,86.72
2018-06-21T01:18:02.836Z,86.92
2018-06-21T01:20:30.052Z,87.10
2018-06-21T01:22:57.257Z,87.52
2018-06-21T01:25:24.765Z,87.12
2018-06-21T01:27:52.569Z,86.76
2018-06-21T01:30:20.265Z,86.59
2018-06-21T01:32:48.440Z,87.05
2018-06-21T01:35:16.235Z,87.07
2018-06-21T01:37:43.451Z,87.87
2018-06-21T01:40:11.704Z,87.77
2018-06-21T01:42:38.923Z,87.65
2018-06-21T01:45:06.057Z,87.92
2018-06-21T01:47:33.560Z,88.04
2018-06-21T01:50:00.739Z,88.30
2018-06-21T01:52:27.983Z,88.42
2018-06-21T01:54:55.524Z,88.29
2018-06-21T01:57:23.187Z,88.95
2018-06-21T01:59:50.740Z,88.46
2018-06-21T02:02:18.795Z,89.02
2018-06-21T02:05:05.022Z,88.83
2018-06-21T02:07:32.296Z,88.58
2018-06-21T02:09:59.450Z,89.14
2018-06-21T02:12:26.695Z,88.86
2018-06-21T02:14:54.325Z,89.31
2018-06-21T02:17:21.713Z,88.97
2018-06-21T02:19:49.380Z,89.00
2018-06-21T02:22:17.172Z,88.87
2018-06-21T02:24:44.440Z,88.83
2018-06-21T02:27:11.930Z,88.67
2018-06-21T02:29:39.291Z,89.31
2018-06-21T02:32:06.489Z,89.32
2018-06-21T02:34:33.703Z,89.15
2018-06-21T02:37:00.915Z,88.80
2018-06-21T02:39:28.123Z,89.41
2018-06-21T02:41:55.427Z,89.43
2018-06-21T02:44:23.015Z,89.53
2018-06-21T02:46:50.667Z,89.30
2018-06-21T02:49:18.600Z,88.92
2018-06-21T02:51:46.537Z,89.45
2018-06-21T02:54:13.732Z,89.17
2018-06-21T02:56:40.913Z,89.55
2018-06-21T02:59:08.140Z,89.48
2018-06-21T03:01:35.256Z,89.61
2018-06-21T03:04:02.542Z,89.80
2018-06-21T03:06:29.693Z,89.52
2018-06-21T03:08:56.956Z,89.52
2018-06-21T03:11:24.500Z,89.96
2018-06-21T03:13:51.895Z,89.98
2018-06-21T03:16:19.570Z,89.87
2018-06-21T03:18:47.133Z,89.96
2018-06-21T03:21:14.414Z,89.64
2018-06-21T03:23:41.575Z,89.54
2018-06-21T03:26:10.902Z,89.85
2018-06-21T03:28:38.538Z,89.61
2018-06-21T03:31:06.125Z,89.44
2018-06-21T03:33:33.548Z,89.88
2018-06-21T03:36:01.362Z,89.71
2018-06-21T03:38:28.545Z,89.83
2018-06-21T03:40:56.018Z,91.00
2018-06-21T03:43:23.711Z,90.46
2018-06-21T03:45:51.500Z,90.20
2018-06-21T03:48:19.212Z,89.74
2018-06-21T03:50:47.790Z,89.55
2018-06-21T03:53:15.648Z,90.09
2018-06-21T03:55:42.931Z,90.29
2018-06-21T03:58:10.297Z,90.00
2018-06-21T04:00:37.480Z,89.99
2018-06-21T04:03:11.616Z,89.63
2018-06-21T04:05:38.837Z,90.33
2018-06-21T04:08:05.975Z,90.02
2018-06-21T04:10:34.085Z,89.68
2018-06-21T04:13:03.178Z,89.01
2018-06-21T04:15:30.478Z,88.29
2018-06-21T04:17:58.264Z,88.49
2018-06-21T04:20:25.711Z,88.89
2018-06-21T04:22:53.381Z,88.51
2018-06-21T04:25:21.010Z,88.74
2018-06-21T04:27:49.097Z,87.91
2018-06-21T04:30:17.159Z,87.17
2018-06-21T04:32:44.553Z,84.49
2018-06-21T04:35:11.690Z,84.82
2018-06-21T04:37:39.676Z,85.60
2018-06-21T04:40:07.773Z,86.01
2018-06-21T04:42:35.128Z,84.41
2018-06-21T04:45:06.730Z,84.78
2018-06-21T04:47:34.007Z,83.17
2018-06-21T04:50:01.308Z,83.49
2018-06-21T04:52:28.491Z,82.23
2018-06-21T04:54:55.961Z,81.70
2018-06-21T04:57:26.629Z,81.27
2018-06-21T04:59:53.962Z,81.83
2018-06-21T05:02:21.676Z,80.96
2018-06-21T05:04:49.428Z,81.11
2018-06-21T05:07:17.473Z,80.25
2018-06-21T05:09:47.097Z,78.82
2018-06-21T05:12:20.762Z,78.22
2018-06-21T05:14:48.786Z,75.49
2018-06-21T05:17:16.244Z,73.51
2018-06-21T05:19:43.781Z,72.39
2018-06-21T05:22:11.217Z,73.77
2018-06-21T05:24:38.390Z,73.47
2018-06-21T05:27:05.889Z,72.43
2018-06-21T05:29:33.412Z,72.49
2018-06-21T05:32:00.570Z,72.64
2018-06-21T05:34:27.695Z,70.22
2018-06-21T05:36:55.175Z,69.26
2018-06-21T05:39:22.394Z,69.72
2018-06-21T05:41:50.248Z,70.38
2018-06-21T05:44:17.977Z,68.83
2018-06-21T05:46:45.355Z,69.18
2018-06-21T05:49:12.876Z,67.39
2018-06-21T05:51:40.522Z,67.59
2018-06-21T05:54:08.154Z,67.00
2018-06-21T05:56:39.898Z,66.52
2018-06-21T05:59:07.091Z,66.62
2018-06-21T06:01:35.932Z,66.57
2018-06-21T06:04:03.395Z,66.53
2018-06-21T06:06:30.625Z,66.58
2018-06-21T06:08:57.836Z,66.14
2018-06-21T06:11:25.133Z,66.54
2018-06-21T06:13:52.268Z,66.69
2018-06-21T06:16:19.642Z,63.76
2018-06-21T06:18:47.212Z,63.55
2018-06-21T06:21:14.762Z,64.04
2018-06-21T06:23:42.174Z,64.97
2018-06-21T06:26:09.682Z,64.71
2018-06-21T06:28:40.452Z,66.44
2018-06-21T06:31:07.636Z,64.45
2018-06-21T06:33:34.871Z,61.92
2018-06-21T06:36:02.027Z,60.75
2018-06-21T06:38:29.441Z,60.92
2018-06-21T06:40:57.392Z,59.03
2018-06-21T06:43:24.971Z,60.31
2018-06-21T06:45:52.632Z,58.15
2018-06-21T06:48:20.176Z,58.41
2018-06-21T06:50:47.302Z,56.67
2018-06-21T06:53:14.485Z,56.65
2018-06-21T06:55:41.774Z,58.27
2018-06-21T06:58:09.365Z,56.47
2018-06-21T07:00:36.489Z,55.90
2018-06-21T07:03:03.771Z,55.35
2018-06-21T07:05:30.993Z,52.25
2018-06-21T07:07:58.614Z,51.67
2018-06-21T07:10:26.684Z,53.36
2018-06-21T07:12:54.350Z,52.57
2018-06-21T07:15:22.260Z,52.18
2018-06-21T07:17:49.953Z,53.43
2018-06-21T07:20:17.264Z,52.45
2018-06-21T07:22:44.823Z,48.97
2018-06-21T07:25:12.097Z,50.34
2018-06-21T07:27:39.580Z,52.04
2018-06-21T07:30:06.788Z,51.87
2018-06-21T07:32:34.063Z,50.41
2018-06-21T07:35:01.189Z,49.26
2018-06-21T07:37:28.639Z,50.28
2018-06-21T07:39:55.865Z,47.49
2018-06-21T07:42:23.127Z,48.67
2018-06-21T07:44:50.414Z,47.35
2018-06-21T07:47:18.824Z,47.02
2018-06-21T07:49:46.290Z,48.06
2018-06-21T07:52:14.349Z,46.92
2018-06-21T07:54:42.317Z,45.77
2018-06-21T07:57:10.274Z,46.09
2018-06-21T07:59:37.559Z,45.34
2018-06-21T08:02:04.812Z,45.25
2018-06-21T08:04:31.955Z,46.64
2018-06-21T08:06:59.150Z,46.09
2018-06-21T08:09:26.435Z,43.86
2018-06-21T08:11:53.592Z,43.38
2018-06-21T08:14:20.957Z,44.50
2018-06-21T08:16:48.493Z,43.88
2018-06-21T08:19:18.430Z,42.68
2018-06-21T08:21:46.219Z,43.08
2018-06-21T08:24:14.003Z,43.24
2018-06-21T08:26:41.584Z,44.13
2018-06-21T08:29:08.779Z,46.06
2018-06-21T08:31:36.267Z,43.57
2018-06-21T08:34:03.658Z,44.33
2018-06-21T08:36:31.468Z,40.42
2018-06-21T08:38:59.441Z,43.00
2018-06-21T08:41:31.257Z,39.34
2018-06-21T08:43:58.915Z,41.67
2018-06-21T08:46:26.761Z,40.60
2018-06-21T08:48:54.974Z,40.89
2018-06-21T08:51:22.658Z,42.45
2018-06-21T08:53:51.147Z,42.43
2018-06-21T08:56:18.400Z,42.56
2018-06-21T08:58:45.569Z,43.66
2018-06-21T09:01:12.723Z,44.87
2018-06-21T09:03:39.885Z,41.73
2018-06-21T09:06:07.120Z,40.08
2018-06-21T09:08:34.570Z,45.04
2018-06-21T09:11:02.257Z,42.09
2018-06-21T09:13:35.264Z,40.60
2018-06-21T09:16:03.388Z,41.96
2018-06-21T09:18:30.910Z,44.19
2018-06-21T09:20:58.702Z,43.21
2018-06-21T09:23:26.388Z,42.87
2018-06-21T09:25:55.705Z,43.74
2018-06-21T09:28:23.937Z,42.14
2018-06-21T09:30:52.271Z,40.91
2018-06-21T09:33:20.272Z,41.19
2018-06-21T09:35:48.720Z,39.84
2018-06-21T09:38:21.954Z,38.02
2018-06-21T09:40:55.625Z,39.31
2018-06-21T09:43:28.942Z,35.01
2018-06-21T09:46:02.110Z,34.73
2018-06-21T09:48:30.868Z,35.77
2018-06-21T09:50:59.024Z,35.49
2018-06-21T09:53:27.352Z,34.56
2018-06-21T09:55:55.021Z,36.70
2018-06-21T09:58:22.719Z,31.79
2018-06-21T10:00:56.297Z,34.89
2018-06-21T10:03:23.947Z,32.04
2018-06-21T10:05:51.675Z,34.14
2018-06-21T10:08:19.777Z,32.07
2018-06-21T10:10:47.209Z,31.06
2018-06-21T10:13:15.300Z,32.21
2018-06-21T10:15:42.513Z,32.83
2018-06-21T10:18:10.322Z,33.70
2018-06-21T10:20:37.688Z,32.97
2018-06-21T10:23:05.268Z,31.43
2018-06-21T10:25:33.131Z,35.18
2018-06-21T10:28:00.742Z,35.97
2018-06-21T10:30:28.080Z,31.50
2018-06-21T10:32:55.295Z,33.71
2018-06-21T10:35:22.534Z,32.59
2018-06-21T10:37:52.756Z,34.42
2018-06-21T10:40:20.071Z,32.33
2018-06-21T10:42:48.579Z,29.20
2018-06-21T10:45:15.863Z,29.84
2018-06-21T10:47:43.623Z,31.30
2018-06-21T10:50:10.806Z,36.78
2018-06-21T10:52:38.326Z,41.05
2018-06-21T10:55:06.083Z,46.60
2018-06-21T10:57:33.589Z,49.65
2018-06-21T11:00:01.007Z,52.44
2018-06-21T11:02:28.237Z,54.63
2018-06-21T11:04:55.452Z,57.26
2018-06-21T11:07:22.612Z,68.73
2018-06-21T11:09:49.787Z,75.17
2018-06-21T11:12:16.920Z,77.42
2018-06-21T11:14:44.181Z,82.42
2018-06-21T11:17:11.641Z,85.72
2018-06-21T11:19:39.316Z,77.82
2018-06-21T11:22:07.385Z,75.93
2018-06-21T11:24:35.690Z,74.17
2018-06-21T11:27:03.569Z,70.71
2018-06-21T11:29:31.163Z,67.16
2018-06-21T11:31:58.432Z,59.50
2018-06-21T11:34:25.568Z,59.50
2018-06-21T11:36:52.735Z,60.16
2018-06-21T11:39:19.991Z,60.54
2018-06-21T11:41:47.126Z,58.16
2018-06-21T11:44:14.295Z,59.31
2018-06-21T11:46:41.553Z,58.65
2018-06-21T11:49:09.056Z,58.29
2018-06-21T11:51:37.228Z,57.31
2018-06-21T11:54:05.273Z,56.97
2018-06-21T11:56:32.540Z,60.09
2018-06-21T11:59:00.089Z,58.61
2018-06-21T12:01:27.844Z,59.06
2018-06-21T12:03:55.318Z,61.05
2018-06-21T12:06:23.285Z,61.42
2018-06-21T12:08:50.817Z,63.07
2018-06-21T12:11:18.087Z,64.52
2018-06-21T12:13:45.292Z,66.29
2018-06-21T12:16:12.458Z,68.17
2018-06-21T12:18:39.570Z,68.51
2018-06-21T12:21:09.900Z,68.82
2018-06-21T12:23:37.102Z,69.72
2018-06-21T12:26:04.317Z,69.97
2018-06-21T12:28:31.569Z,74.22
2018-06-21T12:30:58.878Z,79.44
2018-06-21T12:33:28.322Z,81.42
2018-06-21T12:35:57.201Z,84.28
2018-06-21T12:38:25.228Z,87.21
2018-06-21T12:40:53.729Z,87.84
2018-06-21T12:43:22.141Z,87.30
2018-06-21T12:45:50.214Z,89.22
2018-06-21T12:48:17.409Z,90.80
2018-06-21T12:50:44.773Z,91.40
2018-06-21T12:53:12.979Z,92.25
2018-06-21T12:55:40.109Z,91.53
2018-06-21T12:58:07.364Z,92.17
2018-06-21T13:00:34.549Z,93.85
2018-06-21T13:03:01.655Z,92.53
2018-06-21T13:05:29.409Z,91.53
2018-06-21T13:07:56.897Z,89.05
2018-06-21T13:10:35.716Z,89.36
2018-06-21T13:13:15.799Z,89.65
2018-06-21T13:15:43.108Z,90.19
2018-06-21T13:18:10.270Z,91.96
2018-06-21T13:20:37.426Z,91.11
2018-06-21T13:23:04.740Z,92.53
2018-06-21T13:25:31.980Z,85.79
2018-06-21T13:27:59.582Z,86.53
2018-06-21T13:30:27.022Z,84.34
2018-06-21T13:32:54.720Z,79.45
2018-06-21T13:35:22.325Z,80.77
2018-06-21T13:37:50.154Z,84.26
2018-06-21T13:40:19.115Z,82.63
2018-06-21T13:42:46.399Z,77.63
2018-06-21T13:45:13.620Z,81.15
2018-06-21T13:47:40.758Z,75.88
2018-06-21T13:50:07.951Z,83.10
2018-06-21T13:52:35.159Z,82.82
2018-06-21T13:55:02.394Z,79.41
2018-06-21T13:57:29.709Z,79.14
2018-06-21T13:59:57.010Z,82.40
2018-06-21T14:02:24.482Z,82.86
2018-06-21T14:04:52.171Z,82.71
2018-06-21T14:07:20.826Z,84.63
2018-06-21T14:09:48.207Z,85.75
2018-06-21T14:12:15.449Z,82.37
2018-06-21T14:14:42.856Z,80.55
2018-06-21T14:17:10.021Z,78.96
2018-06-21T14:19:37.286Z,77.86
2018-06-21T14:22:04.711Z,75.59
2018-06-21T14:24:31.913Z,79.55
2018-06-21T14:26:59.437Z,78.08
2018-06-21T14:29:26.877Z,70.76
2018-06-21T14:31:54.261Z,69.43
2018-06-21T14:34:21.909Z,67.88
2018-06-21T14:36:49.200Z,65.28
2018-06-21T14:39:16.554Z,64.03
2018-06-21T14:41:43.745Z,62.17
2018-06-21T14:44:10.960Z,63.96
2018-06-21T14:46:38.082Z,57.46
2018-06-21T14:49:05.236Z,56.13
2018-06-21T14:51:32.520Z,54.44
2018-06-21T14:53:59.714Z,54.21
2018-06-21T14:56:27.183Z,51.10
2018-06-21T14:58:55.020Z,46.37
2018-06-21T15:01:22.440Z,41.03
2018-06-21T15:03:49.997Z,37.48
2018-06-21T15:06:17.310Z,35.42
2018-06-21T15:08:44.636Z,32.94
2018-06-21T15:11:13.753Z,33.93
2018-06-21T15:13:41.018Z,31.30
2018-06-21T15:16:08.301Z,29.53
2018-06-21T15:18:36.764Z,28.46
2018-06-21T15:21:05.311Z,29.51
2018-06-21T15:23:32.549Z,27.26
2018-06-21T15:25:59.910Z,26.24
2018-06-21T15:28:27.256Z,28.20
2018-06-21T15:30:54.492Z,26.51
2018-06-21T15:33:21.665Z,27.71
2018-06-21T15:35:49.097Z,27.46
2018-06-21T15:38:17.056Z,26.94
2018-06-21T15:40:44.589Z,29.40
2018-06-21T15:43:12.485Z,26.12
2018-06-21T15:45:40.886Z,25.37
2018-06-21T15:48:08.117Z,25.75
2018-06-21T15:50:35.899Z,24.73
2018-06-21T15:53:03.160Z,25.94
2018-06-21T15:55:30.632Z,26.84
2018-06-21T15:57:58.214Z,29.69
2018-06-21T16:00:25.626Z,31.65
2018-06-21T16:02:52.818Z,35.84
2018-06-21T16:05:20.195Z,36.92
2018-06-21T16:07:47.504Z,36.43
2018-06-21T16:10:15.158Z,37.67
2018-06-21T16:12:42.592Z,38.89
2018-06-21T16:15:10.524Z,39.71
2018-06-21T16:17:38.108Z,40.19
2018-06-21T16:20:05.636Z,39.72
2018-06-21T16:22:33.139Z,43.34
2018-06-21T16:25:00.347Z,39.67
2018-06-21T16:27:27.503Z,40.03
2018-06-21T16:29:55.216Z,39.78
2018-06-21T16:32:22.432Z,40.13
2018-06-21T16:34:49.807Z,40.65
2018-06-21T16:37:17.150Z,42.08
2018-06-21T16:39:44.874Z,42.76
2018-06-21T16:42:12.620Z,43.50
2018-06-21T16:44:40.319Z,43.25
2018-06-21T16:47:09.041Z,44.17
2018-06-21T16:49:39.254Z,43.70
2018-06-21T16:52:07.076Z,45.13
2018-06-21T16:54:36.218Z,43.24
2018-06-21T16:57:08.956Z,43.78
2018-06-21T16:59:40.486Z,43.51
2018-06-21T17:02:10.261Z,42.64
2018-06-21T17:04:42.240Z,42.68
2018-06-21T17:07:20.374Z,42.01
2018-06-21T17:09:51.601Z,42.09
2018-06-21T17:12:19.623Z,42.46
2018-06-21T17:14:49.999Z,42.25
2018-06-21T17:17:21.548Z,42.83
2018-06-21T17:19:50.236Z,43.70
2018-06-21T17:22:19.725Z,43.74
2018-06-21T17:24:49.440Z,44.63
2018-06-21T17:27:16.732Z,44.42
2018-06-21T17:29:44.047Z,44.89
2018-06-21T17:32:11.605Z,45.97
2018-06-21T17:34:40.587Z,46.03
2018-06-21T17:37:07.758Z,45.45
2018-06-21T17:39:35.593Z,44.50
2018-06-21T17:42:03.107Z,45.94
2018-06-21T17:44:30.239Z,47.36
2018-06-21T17:46:57.747Z,46.31
2018-06-21T17:49:24.942Z,46.96
2018-06-21T17:51:52.169Z,48.03
2018-06-21T17:54:19.438Z,49.44
2018-06-21T17:56:46.760Z,49.08
2018-06-21T17:59:14.081Z,48.55
2018-06-21T18:01:41.496Z,49.26
2018-06-21T18:04:09.481Z,50.35
2018-06-21T18:06:37.678Z,50.20
2018-06-21T18:09:07.608Z,51.20
2018-06-21T18:11:34.909Z,50.39
2018-06-21T18:14:02.195Z,49.59
2018-06-21T18:16:29.491Z,47.88
2018-06-21T18:18:56.974Z,48.24
2018-06-21T18:21:25.318Z,48.65
2018-06-21T18:23:54.259Z,48.94
2018-06-21T18:26:22.804Z,49.00
2018-06-21T18:28:50.285Z,49.71
2018-06-21T18:31:20.478Z,49.03
2018-06-21T18:33:50.726Z,47.19
2018-06-21T18:36:18.084Z,47.66
2018-06-21T18:38:46.565Z,48.04
2018-06-21T18:41:13.742Z,47.96
2018-06-21T18:43:42.093Z,47.83
2018-06-21T18:46:09.735Z,48.86
2018-06-21T18:48:37.045Z,47.24
2018-06-21T18:51:04.576Z,48.27
2018-06-21T18:53:31.820Z,48.49
2018-06-21T18:55:58.987Z,48.38
2018-06-21T18:58:26.233Z,49.86
2018-06-21T19:00:53.519Z,50.97
2018-06-21T19:03:21.281Z,48.83
2018-06-21T19:05:55.899Z,49.48
2018-06-21T19:08:29.975Z,49.78
2018-06-21T19:11:03.180Z,50.43
2018-06-21T19:13:30.536Z,51.81
2018-06-21T19:15:57.961Z,50.44
2018-06-21T19:18:25.447Z,51.29
2018-06-21T19:20:53.749Z,51.57
2018-06-21T19:23:22.052Z,51.92
2018-06-21T19:25:49.623Z,52.96
2018-06-21T19:28:16.941Z,52.07
2018-06-21T19:30:44.217Z,53.16
2018-06-21T19:33:12.102Z,53.02
2018-06-21T19:35:39.815Z,53.55
2018-06-21T19:38:07.368Z,53.28
2018-06-21T19:40:35.985Z,53.87
2018-06-21T19:43:03.901Z,54.60
2018-06-21T19:45:31.933Z,56.07
2018-06-21T19:47:59.610Z,55.55
2018-06-21T19:50:27.522Z,54.66
2018-06-21T19:52:55.030Z,54.63
2018-06-21T19:55:24.304Z,55.58
2018-06-21T19:57:51.682Z,55.13
2018-06-21T20:00:19.091Z,55.16
2018-06-21T20:02:52.508Z,55.48
2018-06-21T20:05:21.332Z,55.74
2018-06-21T20:07:49.524Z,56.95
2018-06-21T20:10:17.416Z,56.04
2018-06-21T20:12:45.330Z,58.68
2018-06-21T20:15:12.864Z,56.37
2018-06-21T20:17:40.224Z,56.84
2018-06-21T20:20:13.165Z,57.12
2018-06-21T20:22:40.513Z,59.30
2018-06-21T20:25:07.885Z,58.55
2018-06-21T20:27:35.256Z,58.42
2018-06-21T20:30:02.773Z,59.55
2018-06-21T20:32:29.923Z,60.08
2018-06-21T20:34:57.188Z,61.18
2018-06-21T20:37:24.537Z,60.28
2018-06-21T20:39:51.834Z,65.89
2018-06-21T20:42:19.726Z,60.93
2018-06-21T20:44:47.397Z,61.08
2018-06-21T20:47:14.868Z,61.61
2018-06-21T20:49:43.082Z,63.34
2018-06-21T20:52:16.565Z,63.53
2018-06-21T20:54:43.915Z,62.67
2018-06-21T20:57:11.764Z,62.19
2018-06-21T20:59:39.653Z,63.74
2018-06-21T21:02:07.240Z,63.12
2018-06-21T21:05:16.721Z,62.96
2018-06-21T21:07:45.011Z,65.80
2018-06-21T21:10:13.564Z,65.51
2018-06-21T21:12:41.648Z,67.70
2018-06-21T21:15:10.218Z,65.85
2018-06-21T21:17:38.142Z,65.87
2018-06-21T21:20:06.694Z,66.66
2018-06-21T21:22:35.530Z,67.53
2018-06-21T21:25:02.810Z,67.12
2018-06-21T21:27:30.169Z,66.82
2018-06-21T21:29:57.470Z,69.48
2018-06-21T21:32:25.512Z,69.87
2018-06-21T21:34:53.151Z,68.08
2018-06-21T21:37:20.292Z,68.55
2018-06-21T21:39:47.933Z,69.52
2018-06-21T21:42:15.269Z,71.65
2018-06-21T21:44:42.945Z,70.83
2018-06-21T21:47:10.667Z,73.99
2018-06-21T21:49:38.112Z,74.00
2018-06-21T21:52:05.416Z,73.17
2018-06-21T21:54:32.559Z,74.45
2018-06-21T21:56:59.792Z,72.48
2018-06-21T21:59:27.049Z,71.94
2018-06-21T22:01:54.377Z,70.63
2018-06-21T22:04:21.544Z,73.01
2018-06-21T22:06:48.853Z,71.41
2018-06-21T22:09:16.000Z,71.15
2018-06-21T22:11:43.144Z,71.20
2018-06-21T22:14:10.306Z,71.36
2018-06-21T22:16:37.461Z,70.86
2018-06-21T22:19:04.633Z,72.52
2018-06-21T22:21:31.962Z,71.71
2018-06-21T22:23:59.160Z,72.45
2018-06-21T22:26:27.000Z,71.37
2018-06-21T22:28:54.265Z,71.03
2018-06-21T22:31:21.399Z,71.86
2018-06-21T22:33:48.539Z,70.33
2018-06-21T22:36:15.736Z,71.38
2018-06-21T22:38:42.997Z,71.16
2018-06-21T22:41:10.705Z,72.67
2018-06-21T22:43:39.006Z,70.71
2018-06-21T22:46:07.577Z,71.42
2018-06-21T22:48:35.153Z,71.35
2018-06-21T22:51:02.404Z,71.08
2018-06-21T22:53:29.651Z,71.78
2018-06-21T22:55:56.961Z,70.54
2018-06-21T22:58:24.287Z,71.99
2018-06-21T23:00:51.538Z,70.59
2018-06-21T23:03:19.696Z,72.15
2018-06-21T23:05:48.572Z,72.04
2018-06-21T23:08:17.165Z,71.39
2018-06-21T23:10:44.382Z,71.59
2018-06-21T23:13:11.633Z,74.43
2018-06-21T23:15:39.108Z,71.92
2018-06-21T23:18:07.816Z,73.58
2018-06-21T23:20:35.423Z,73.23
2018-06-21T23:23:02.617Z,72.14
2018-06-21T23:25:29.897Z,72.03
2018-06-21T23:27:57.209Z,73.68
2018-06-21T23:30:24.532Z,75.05
2018-06-21T23:32:51.816Z,73.69
2018-06-21T23:35:19.722Z,72.46
2018-06-21T23:37:47.976Z,72.39
2018-06-21T23:40:15.748Z,75.09
2018-06-21T23:42:43.000Z,74.73
2018-06-21T23:45:10.166Z,73.65
2018-06-21T23:47:38.507Z,73.75
2018-06-21T23:50:05.933Z,74.76
2018-06-21T23:52:33.162Z,74.62
2018-06-21T23:55:00.492Z,73.28
2018-06-21T23:57:27.923Z,73.48
2018-06-21T23:59:55.188Z,75.11
